sensor_id;sensor_type;location;lat;lon;timestamp;P1;durP1;ratioP1;P2;durP2;ratioP2
69053;SDS011;56125;52.242;4.756;2023-03-15T00:00:38;1.63;;;0.50;;
69053;SDS011;56125;52.242;4.756;2023-03-15T00:05:45;1.42;;;0.50;;
69053;SDS011;56125;52.242;4.756;2023-03-15T00:10:47;0.90;;;0.50;;
69053;SDS011;56125;52.242;4.756;2023-03-15T00:15:49;0.77;;;0.50;;
69053;SDS011;56125;52.242;4.756;2023-03-15T00:20:51;0.97;;;0.50;;
69053;SDS011;56125;52.242;4.756;2023-03-15T00:25:52;1.20;;;0.47;;
69053;SDS011;56125;52.242;4.756;2023-03-15T00:31:13;1.40;;;0.50;;
69053;SDS011;56125;52.242;4.756;2023-03-15T00:36:16;1.92;;;0.70;;
69053;SDS011;56125;52.242;4.756;2023-03-15T00:41:17;1.37;;;0.60;;
69053;SDS011;56125;52.242;4.756;2023-03-15T00:46:19;1.83;;;0.50;;
69053;SDS011;56125;52.242;4.756;2023-03-15T00:51:21;0.60;;;0.50;;
69053;SDS011;56125;52.242;4.756;2023-03-15T00:56:24;0.75;;;0.60;;
69053;SDS011;56125;52.242;4.756;2023-03-15T01:01:27;0.73;;;0.50;;
69053;SDS011;56125;52.242;4.756;2023-03-15T01:06:29;1.67;;;0.70;;
69053;SDS011;56125;52.242;4.756;2023-03-15T01:11:30;1.47;;;0.50;;
69053;SDS011;56125;52.242;4.756;2023-03-15T01:16:31;1.25;;;0.50;;
69053;SDS011;56125;52.242;4.756;2023-03-15T01:21:32;1.50;;;0.60;;
69053;SDS011;56125;52.242;4.756;2023-03-15T01:26:33;0.60;;;0.50;;
69053;SDS011;56125;52.242;4.756;2023-03-15T01:31:34;0.63;;;0.47;;
69053;SDS011;56125;52.242;4.756;2023-03-15T01:36:35;0.68;;;0.50;;
69053;SDS011;56125;52.242;4.756;2023-03-15T01:41:36;1.27;;;0.60;;
69053;SDS011;56125;52.242;4.756;2023-03-15T01:46:37;0.60;;;0.50;;
69053;SDS011;56125;52.242;4.756;2023-03-15T01:51:43;1.33;;;0.50;;
69053;SDS011;56125;52.242;4.756;2023-03-15T01:57:05;2.65;;;0.68;;
69053;SDS011;56125;52.242;4.756;2023-03-15T02:02:11;5.27;;;0.70;;
69053;SDS011;56125;52.242;4.756;2023-03-15T02:07:14;2.58;;;0.63;;
69053;SDS011;56125;52.242;4.756;2023-03-15T02:12:17;2.10;;;0.67;;
69053;SDS011;56125;52.242;4.756;2023-03-15T02:17:18;2.03;;;0.50;;
69053;SDS011;56125;52.242;4.756;2023-03-15T02:22:40;2.47;;;0.60;;
69053;SDS011;56125;52.242;4.756;2023-03-15T02:27:46;3.83;;;0.65;;
69053;SDS011;56125;52.242;4.756;2023-03-15T02:32:47;1.40;;;0.67;;
69053;SDS011;56125;52.242;4.756;2023-03-15T02:37:49;1.73;;;0.50;;
69053;SDS011;56125;52.242;4.756;2023-03-15T02:42:51;0.80;;;0.50;;
69053;SDS011;56125;52.242;4.756;2023-03-15T02:47:54;1.50;;;0.60;;
69053;SDS011;56125;52.242;4.756;2023-03-15T02:52:56;0.93;;;0.50;;
69053;SDS011;56125;52.242;4.756;2023-03-15T02:57:58;1.33;;;0.57;;
69053;SDS011;56125;52.242;4.756;2023-03-15T03:02:59;1.23;;;0.60;;
69053;SDS011;56125;52.242;4.756;2023-03-15T03:08:00;0.93;;;0.70;;
69053;SDS011;56125;52.242;4.756;2023-03-15T03:13:02;2.33;;;0.60;;
69053;SDS011;56125;52.242;4.756;2023-03-15T03:18:03;0.80;;;0.70;;
69053;SDS011;56125;52.242;4.756;2023-03-15T03:23:04;1.37;;;0.60;;
69053;SDS011;56125;52.242;4.756;2023-03-15T03:28:05;1.00;;;0.60;;
69053;SDS011;56125;52.242;4.756;2023-03-15T03:33:06;1.93;;;0.63;;
69053;SDS011;56125;52.242;4.756;2023-03-15T03:38:08;1.52;;;0.68;;
69053;SDS011;56125;52.242;4.756;2023-03-15T03:43:10;1.13;;;0.50;;
69053;SDS011;56125;52.242;4.756;2023-03-15T03:48:11;2.65;;;0.60;;
69053;SDS011;56125;52.242;4.756;2023-03-15T03:53:12;1.63;;;0.63;;
69053;SDS011;56125;52.242;4.756;2023-03-15T03:58:13;1.02;;;0.57;;
69053;SDS011;56125;52.242;4.756;2023-03-15T04:03:14;1.17;;;0.70;;
69053;SDS011;56125;52.242;4.756;2023-03-15T04:08:15;0.90;;;0.63;;
69053;SDS011;56125;52.242;4.756;2023-03-15T04:13:16;1.23;;;0.50;;
69053;SDS011;56125;52.242;4.756;2023-03-15T04:18:17;1.38;;;0.60;;
69053;SDS011;56125;52.242;4.756;2023-03-15T04:23:19;0.53;;;0.50;;
69053;SDS011;56125;52.242;4.756;2023-03-15T04:28:21;2.08;;;0.60;;
69053;SDS011;56125;52.242;4.756;2023-03-15T04:33:26;1.40;;;0.57;;
69053;SDS011;56125;52.242;4.756;2023-03-15T04:38:28;1.67;;;0.77;;
69053;SDS011;56125;52.242;4.756;2023-03-15T04:43:31;1.37;;;0.70;;
69053;SDS011;56125;52.242;4.756;2023-03-15T04:48:32;2.45;;;0.70;;
69053;SDS011;56125;52.242;4.756;2023-03-15T04:53:34;2.00;;;0.70;;
69053;SDS011;56125;52.242;4.756;2023-03-15T04:58:35;1.80;;;0.80;;
69053;SDS011;56125;52.242;4.756;2023-03-15T05:03:36;2.90;;;0.60;;
69053;SDS011;56125;52.242;4.756;2023-03-15T05:08:37;3.13;;;0.80;;
69053;SDS011;56125;52.242;4.756;2023-03-15T05:13:38;3.23;;;0.80;;
69053;SDS011;56125;52.242;4.756;2023-03-15T05:18:39;1.25;;;0.70;;
69053;SDS011;56125;52.242;4.756;2023-03-15T05:23:40;3.00;;;0.80;;
69053;SDS011;56125;52.242;4.756;2023-03-15T05:28:41;2.88;;;0.82;;
69053;SDS011;56125;52.242;4.756;2023-03-15T05:33:44;2.47;;;0.83;;
69053;SDS011;56125;52.242;4.756;2023-03-15T05:38:48;2.40;;;0.90;;
69053;SDS011;56125;52.242;4.756;2023-03-15T05:43:49;7.80;;;1.43;;
69053;SDS011;56125;52.242;4.756;2023-03-15T05:48:51;6.13;;;2.05;;
69053;SDS011;56125;52.242;4.756;2023-03-15T05:53:53;5.67;;;1.43;;
69053;SDS011;56125;52.242;4.756;2023-03-15T05:58:54;6.70;;;1.13;;
69053;SDS011;56125;52.242;4.756;2023-03-15T06:03:55;5.97;;;1.33;;
69053;SDS011;56125;52.242;4.756;2023-03-15T06:08:56;3.20;;;1.73;;
69053;SDS011;56125;52.242;4.756;2023-03-15T06:13:57;3.73;;;1.30;;
69053;SDS011;56125;52.242;4.756;2023-03-15T06:18:58;5.53;;;1.50;;
69053;SDS011;56125;52.242;4.756;2023-03-15T06:23:59;5.63;;;1.00;;
69053;SDS011;56125;52.242;4.756;2023-03-15T06:29:00;4.03;;;1.50;;
69053;SDS011;56125;52.242;4.756;2023-03-15T06:34:01;3.93;;;1.20;;
69053;SDS011;56125;52.242;4.756;2023-03-15T06:39:02;4.97;;;1.17;;
69053;SDS011;56125;52.242;4.756;2023-03-15T06:44:05;4.23;;;1.20;;
69053;SDS011;56125;52.242;4.756;2023-03-15T06:49:06;4.53;;;1.25;;
69053;SDS011;56125;52.242;4.756;2023-03-15T06:54:07;5.43;;;1.27;;
69053;SDS011;56125;52.242;4.756;2023-03-15T06:59:08;5.82;;;1.23;;
69053;SDS011;56125;52.242;4.756;2023-03-15T07:04:09;3.83;;;1.17;;
69053;SDS011;56125;52.242;4.756;2023-03-15T07:09:10;4.78;;;1.15;;
69053;SDS011;56125;52.242;4.756;2023-03-15T07:14:11;4.30;;;0.93;;
69053;SDS011;56125;52.242;4.756;2023-03-15T07:19:12;2.78;;;0.80;;
69053;SDS011;56125;52.242;4.756;2023-03-15T07:24:13;2.63;;;0.90;;
69053;SDS011;56125;52.242;4.756;2023-03-15T07:29:14;2.45;;;1.05;;
69053;SDS011;56125;52.242;4.756;2023-03-15T07:34:15;2.40;;;0.70;;
69053;SDS011;56125;52.242;4.756;2023-03-15T07:39:16;3.28;;;1.15;;
69053;SDS011;56125;52.242;4.756;2023-03-15T07:44:17;2.13;;;1.00;;
69053;SDS011;56125;52.242;4.756;2023-03-15T07:49:19;2.25;;;0.82;;
69053;SDS011;56125;52.242;4.756;2023-03-15T07:54:20;1.67;;;0.70;;
69053;SDS011;56125;52.242;4.756;2023-03-15T07:59:21;1.35;;;0.70;;
69053;SDS011;56125;52.242;4.756;2023-03-15T08:04:22;2.40;;;0.80;;
69053;SDS011;56125;52.242;4.756;2023-03-15T08:09:23;0.93;;;0.82;;
69053;SDS011;56125;52.242;4.756;2023-03-15T08:14:24;2.80;;;0.80;;
69053;SDS011;56125;52.242;4.756;2023-03-15T08:19:25;3.80;;;1.17;;
69053;SDS011;56125;52.242;4.756;2023-03-15T08:24:26;1.97;;;0.70;;
69053;SDS011;56125;52.242;4.756;2023-03-15T08:29:27;4.00;;;0.90;;
69053;SDS011;56125;52.242;4.756;2023-03-15T08:34:28;2.50;;;0.90;;
69053;SDS011;56125;52.242;4.756;2023-03-15T08:39:32;2.97;;;0.93;;
69053;SDS011;56125;52.242;4.756;2023-03-15T08:44:35;1.50;;;0.90;;
69053;SDS011;56125;52.242;4.756;2023-03-15T08:49:36;2.58;;;0.80;;
69053;SDS011;56125;52.242;4.756;2023-03-15T08:54:37;2.20;;;0.60;;
69053;SDS011;56125;52.242;4.756;2023-03-15T08:59:39;2.35;;;0.90;;
69053;SDS011;56125;52.242;4.756;2023-03-15T09:04:40;2.77;;;1.00;;
69053;SDS011;56125;52.242;4.756;2023-03-15T09:09:42;2.90;;;1.00;;
69053;SDS011;56125;52.242;4.756;2023-03-15T09:14:47;2.23;;;0.77;;
69053;SDS011;56125;52.242;4.756;2023-03-15T09:19:48;3.60;;;0.88;;
69053;SDS011;56125;52.242;4.756;2023-03-15T09:24:49;2.80;;;0.70;;
69053;SDS011;56125;52.242;4.756;2023-03-15T09:29:51;1.70;;;0.80;;
69053;SDS011;56125;52.242;4.756;2023-03-15T09:34:53;2.80;;;0.70;;
69053;SDS011;56125;52.242;4.756;2023-03-15T09:39:54;2.40;;;0.80;;
69053;SDS011;56125;52.242;4.756;2023-03-15T09:44:58;1.70;;;0.73;;
69053;SDS011;56125;52.242;4.756;2023-03-15T09:50:20;3.00;;;1.05;;
69053;SDS011;56125;52.242;4.756;2023-03-15T09:55:25;1.03;;;0.60;;
69053;SDS011;56125;52.242;4.756;2023-03-15T10:00:38;2.08;;;0.70;;
69053;SDS011;56125;52.242;4.756;2023-03-15T10:05:48;1.73;;;0.80;;
69053;SDS011;56125;52.242;4.756;2023-03-15T10:16:18;1.73;;;0.60;;
69053;SDS011;56125;52.242;4.756;2023-03-15T10:21:55;3.30;;;0.70;;
69053;SDS011;56125;52.242;4.756;2023-03-15T10:26:58;2.13;;;0.90;;
69053;SDS011;56125;52.242;4.756;2023-03-15T10:32:14;1.50;;;0.73;;
69053;SDS011;56125;52.242;4.756;2023-03-15T10:37:20;1.63;;;0.70;;
69053;SDS011;56125;52.242;4.756;2023-03-15T10:42:24;1.50;;;0.70;;
69053;SDS011;56125;52.242;4.756;2023-03-15T10:47:26;1.33;;;0.70;;
69053;SDS011;56125;52.242;4.756;2023-03-15T10:52:30;1.95;;;0.65;;
69053;SDS011;56125;52.242;4.756;2023-03-15T10:57:37;1.43;;;0.60;;
69053;SDS011;56125;52.242;4.756;2023-03-15T11:02:41;2.55;;;0.63;;
69053;SDS011;56125;52.242;4.756;2023-03-15T11:07:52;1.53;;;0.80;;
69053;SDS011;56125;52.242;4.756;2023-03-15T11:13:07;1.85;;;0.77;;
69053;SDS011;56125;52.242;4.756;2023-03-15T11:18:18;2.13;;;0.60;;
69053;SDS011;56125;52.242;4.756;2023-03-15T11:23:34;2.72;;;0.90;;
69053;SDS011;56125;52.242;4.756;2023-03-15T11:28:37;1.93;;;0.63;;
69053;SDS011;56125;52.242;4.756;2023-03-15T11:39:11;1.53;;;0.80;;
69053;SDS011;56125;52.242;4.756;2023-03-15T11:44:29;1.58;;;0.70;;
69053;SDS011;56125;52.242;4.756;2023-03-15T11:54:50;1.35;;;0.68;;
69053;SDS011;56125;52.242;4.756;2023-03-15T11:59:55;1.90;;;0.60;;
69053;SDS011;56125;52.242;4.756;2023-03-15T12:04:56;1.20;;;0.50;;
69053;SDS011;56125;52.242;4.756;2023-03-15T12:20:19;1.60;;;0.50;;
69053;SDS011;56125;52.242;4.756;2023-03-15T12:31:05;2.73;;;0.67;;
69053;SDS011;56125;52.242;4.756;2023-03-15T12:36:18;2.20;;;0.70;;
69053;SDS011;56125;52.242;4.756;2023-03-15T12:41:33;2.67;;;0.60;;
69053;SDS011;56125;52.242;4.756;2023-03-15T12:51:42;1.53;;;0.60;;
69053;SDS011;56125;52.242;4.756;2023-03-15T12:57:01;2.38;;;0.70;;
69053;SDS011;56125;52.242;4.756;2023-03-15T13:02:07;1.97;;;0.70;;
69053;SDS011;56125;52.242;4.756;2023-03-15T13:13:05;1.47;;;0.57;;
69053;SDS011;56125;52.242;4.756;2023-03-15T13:18:26;1.52;;;0.90;;
69053;SDS011;56125;52.242;4.756;2023-03-15T13:23:33;2.40;;;0.70;;
69053;SDS011;56125;52.242;4.756;2023-03-15T13:28:36;1.52;;;0.60;;
69053;SDS011;56125;52.242;4.756;2023-03-15T13:33:39;1.60;;;0.70;;
69053;SDS011;56125;52.242;4.756;2023-03-15T13:38:42;1.05;;;0.80;;
69053;SDS011;56125;52.242;4.756;2023-03-15T13:43:45;1.13;;;0.60;;
69053;SDS011;56125;52.242;4.756;2023-03-15T13:48:48;1.05;;;0.77;;
69053;SDS011;56125;52.242;4.756;2023-03-15T13:53:54;2.60;;;0.63;;
69053;SDS011;56125;52.242;4.756;2023-03-15T13:59:02;1.55;;;0.70;;
69053;SDS011;56125;52.242;4.756;2023-03-15T14:04:05;1.17;;;0.70;;
69053;SDS011;56125;52.242;4.756;2023-03-15T14:09:16;0.80;;;0.50;;
69053;SDS011;56125;52.242;4.756;2023-03-15T14:14:21;2.50;;;0.50;;
69053;SDS011;56125;52.242;4.756;2023-03-15T14:24:36;1.60;;;0.67;;
69053;SDS011;56125;52.242;4.756;2023-03-15T14:29:44;1.80;;;0.70;;
69053;SDS011;56125;52.242;4.756;2023-03-15T14:34:47;1.63;;;0.60;;
69053;SDS011;56125;52.242;4.756;2023-03-15T14:39:48;3.35;;;0.90;;
69053;SDS011;56125;52.242;4.756;2023-03-15T14:44:49;1.93;;;0.60;;
69053;SDS011;56125;52.242;4.756;2023-03-15T14:49:50;1.38;;;0.80;;
69053;SDS011;56125;52.242;4.756;2023-03-15T14:54:52;1.40;;;0.57;;
69053;SDS011;56125;52.242;4.756;2023-03-15T14:59:53;1.13;;;0.63;;
69053;SDS011;56125;52.242;4.756;2023-03-15T15:04:54;0.80;;;0.50;;
69053;SDS011;56125;52.242;4.756;2023-03-15T15:09:55;0.82;;;0.60;;
69053;SDS011;56125;52.242;4.756;2023-03-15T15:14:56;0.80;;;0.60;;
69053;SDS011;56125;52.242;4.756;2023-03-15T15:19:57;1.45;;;0.60;;
69053;SDS011;56125;52.242;4.756;2023-03-15T15:24:58;1.60;;;0.53;;
69053;SDS011;56125;52.242;4.756;2023-03-15T15:29:59;0.90;;;0.50;;
69053;SDS011;56125;52.242;4.756;2023-03-15T15:35:00;1.57;;;0.63;;
69053;SDS011;56125;52.242;4.756;2023-03-15T15:40:02;1.70;;;0.60;;
69053;SDS011;56125;52.242;4.756;2023-03-15T15:45:09;1.37;;;0.67;;
69053;SDS011;56125;52.242;4.756;2023-03-15T15:50:13;1.02;;;0.50;;
69053;SDS011;56125;52.242;4.756;2023-03-15T15:55:17;1.10;;;0.50;;
69053;SDS011;56125;52.242;4.756;2023-03-15T16:00:21;1.63;;;0.60;;
69053;SDS011;56125;52.242;4.756;2023-03-15T16:05:24;1.77;;;0.50;;
69053;SDS011;56125;52.242;4.756;2023-03-15T16:10:28;1.83;;;0.65;;
69053;SDS011;56125;52.242;4.756;2023-03-15T16:15:30;1.63;;;0.60;;
69053;SDS011;56125;52.242;4.756;2023-03-15T16:20:31;1.35;;;0.52;;
69053;SDS011;56125;52.242;4.756;2023-03-15T16:25:33;0.97;;;0.60;;
69053;SDS011;56125;52.242;4.756;2023-03-15T16:30:35;1.13;;;0.70;;
69053;SDS011;56125;52.242;4.756;2023-03-15T16:35:36;1.47;;;0.70;;
69053;SDS011;56125;52.242;4.756;2023-03-15T16:40:39;1.23;;;0.57;;
69053;SDS011;56125;52.242;4.756;2023-03-15T16:45:41;1.93;;;0.60;;
69053;SDS011;56125;52.242;4.756;2023-03-15T16:50:42;2.08;;;0.70;;
69053;SDS011;56125;52.242;4.756;2023-03-15T16:55:43;1.57;;;0.70;;
69053;SDS011;56125;52.242;4.756;2023-03-15T17:00:45;0.75;;;0.60;;
69053;SDS011;56125;52.242;4.756;2023-03-15T17:05:47;1.00;;;0.77;;
69053;SDS011;56125;52.242;4.756;2023-03-15T17:10:48;0.68;;;0.52;;
69053;SDS011;56125;52.242;4.756;2023-03-15T17:15:49;1.30;;;0.60;;
69053;SDS011;56125;52.242;4.756;2023-03-15T17:20:50;3.00;;;0.70;;
69053;SDS011;56125;52.242;4.756;2023-03-15T17:25:51;1.07;;;0.60;;
69053;SDS011;56125;52.242;4.756;2023-03-15T17:30:53;0.85;;;0.55;;
69053;SDS011;56125;52.242;4.756;2023-03-15T17:35:54;0.83;;;0.60;;
69053;SDS011;56125;52.242;4.756;2023-03-15T17:40:56;1.02;;;0.73;;
69053;SDS011;56125;52.242;4.756;2023-03-15T17:45:58;2.00;;;0.77;;
69053;SDS011;56125;52.242;4.756;2023-03-15T17:50:59;0.80;;;0.70;;
69053;SDS011;56125;52.242;4.756;2023-03-15T17:56:00;0.70;;;0.60;;
69053;SDS011;56125;52.242;4.756;2023-03-15T18:01:01;1.52;;;0.60;;
69053;SDS011;56125;52.242;4.756;2023-03-15T18:06:03;1.27;;;0.50;;
69053;SDS011;56125;52.242;4.756;2023-03-15T18:11:10;1.17;;;0.68;;
69053;SDS011;56125;52.242;4.756;2023-03-15T18:16:15;0.80;;;0.73;;
69053;SDS011;56125;52.242;4.756;2023-03-15T18:21:20;1.10;;;0.80;;
69053;SDS011;56125;52.242;4.756;2023-03-15T18:26:23;1.60;;;1.10;;
69053;SDS011;56125;52.242;4.756;2023-03-15T18:31:24;1.42;;;1.08;;
69053;SDS011;56125;52.242;4.756;2023-03-15T18:36:25;1.67;;;0.97;;
69053;SDS011;56125;52.242;4.756;2023-03-15T18:41:26;2.58;;;1.10;;
69053;SDS011;56125;52.242;4.756;2023-03-15T18:46:30;2.23;;;1.10;;
69053;SDS011;56125;52.242;4.756;2023-03-15T18:51:39;2.28;;;1.30;;
69053;SDS011;56125;52.242;4.756;2023-03-15T18:56:41;1.50;;;1.20;;
69053;SDS011;56125;52.242;4.756;2023-03-15T19:01:43;2.00;;;1.40;;
69053;SDS011;56125;52.242;4.756;2023-03-15T19:06:44;4.17;;;1.23;;
69053;SDS011;56125;52.242;4.756;2023-03-15T19:11:45;2.25;;;1.30;;
69053;SDS011;56125;52.242;4.756;2023-03-15T19:16:46;1.83;;;1.17;;
69053;SDS011;56125;52.242;4.756;2023-03-15T19:21:47;2.00;;;1.10;;
69053;SDS011;56125;52.242;4.756;2023-03-15T19:26:48;1.63;;;1.30;;
69053;SDS011;56125;52.242;4.756;2023-03-15T19:31:49;2.20;;;1.10;;
69053;SDS011;56125;52.242;4.756;2023-03-15T19:36:50;1.87;;;1.00;;
69053;SDS011;56125;52.242;4.756;2023-03-15T19:41:51;1.67;;;1.10;;
69053;SDS011;56125;52.242;4.756;2023-03-15T19:46:53;1.50;;;1.10;;
69053;SDS011;56125;52.242;4.756;2023-03-15T19:51:54;1.88;;;1.35;;
69053;SDS011;56125;52.242;4.756;2023-03-15T19:56:55;2.80;;;1.20;;
69053;SDS011;56125;52.242;4.756;2023-03-15T20:01:58;4.15;;;1.30;;
69053;SDS011;56125;52.242;4.756;2023-03-15T20:06:59;2.17;;;1.10;;
69053;SDS011;56125;52.242;4.756;2023-03-15T20:12:00;2.55;;;1.20;;
69053;SDS011;56125;52.242;4.756;2023-03-15T20:17:01;1.23;;;0.90;;
69053;SDS011;56125;52.242;4.756;2023-03-15T20:22:02;2.97;;;1.30;;
69053;SDS011;56125;52.242;4.756;2023-03-15T20:27:04;1.97;;;1.20;;
69053;SDS011;56125;52.242;4.756;2023-03-15T20:32:05;1.83;;;1.42;;
69053;SDS011;56125;52.242;4.756;2023-03-15T20:37:06;2.97;;;1.60;;
69053;SDS011;56125;52.242;4.756;2023-03-15T20:42:07;3.40;;;1.70;;
69053;SDS011;56125;52.242;4.756;2023-03-15T20:47:08;2.17;;;1.50;;
69053;SDS011;56125;52.242;4.756;2023-03-15T20:52:09;2.72;;;1.88;;
69053;SDS011;56125;52.242;4.756;2023-03-15T20:57:11;2.87;;;1.40;;
69053;SDS011;56125;52.242;4.756;2023-03-15T21:02:12;2.00;;;1.30;;
69053;SDS011;56125;52.242;4.756;2023-03-15T21:07:13;1.47;;;1.30;;
69053;SDS011;56125;52.242;4.756;2023-03-15T21:12:14;2.25;;;1.80;;
69053;SDS011;56125;52.242;4.756;2023-03-15T21:17:15;1.80;;;1.33;;
69053;SDS011;56125;52.242;4.756;2023-03-15T21:22:16;1.80;;;1.38;;
69053;SDS011;56125;52.242;4.756;2023-03-15T21:27:17;1.70;;;1.40;;
69053;SDS011;56125;52.242;4.756;2023-03-15T21:32:18;2.60;;;1.70;;
69053;SDS011;56125;52.242;4.756;2023-03-15T21:37:20;2.07;;;1.30;;
69053;SDS011;56125;52.242;4.756;2023-03-15T21:42:21;2.22;;;1.80;;
69053;SDS011;56125;52.242;4.756;2023-03-15T21:47:22;3.67;;;1.60;;
69053;SDS011;56125;52.242;4.756;2023-03-15T21:52:23;3.95;;;1.50;;
69053;SDS011;56125;52.242;4.756;2023-03-15T21:57:25;1.90;;;1.20;;
69053;SDS011;56125;52.242;4.756;2023-03-15T22:02:26;1.88;;;1.27;;
69053;SDS011;56125;52.242;4.756;2023-03-15T22:07:27;1.93;;;1.47;;
69053;SDS011;56125;52.242;4.756;2023-03-15T22:12:28;3.10;;;1.55;;
69053;SDS011;56125;52.242;4.756;2023-03-15T22:17:29;2.17;;;1.40;;
69053;SDS011;56125;52.242;4.756;2023-03-15T22:22:30;2.83;;;1.70;;
69053;SDS011;56125;52.242;4.756;2023-03-15T22:27:32;1.47;;;1.27;;
69053;SDS011;56125;52.242;4.756;2023-03-15T22:32:33;2.92;;;1.42;;
69053;SDS011;56125;52.242;4.756;2023-03-15T22:37:34;2.17;;;1.50;;
69053;SDS011;56125;52.242;4.756;2023-03-15T22:42:35;6.03;;;1.60;;
69053;SDS011;56125;52.242;4.756;2023-03-15T22:47:36;4.40;;;1.50;;
69053;SDS011;56125;52.242;4.756;2023-03-15T22:52:37;3.30;;;1.42;;
69053;SDS011;56125;52.242;4.756;2023-03-15T22:57:38;3.13;;;1.90;;
69053;SDS011;56125;52.242;4.756;2023-03-15T23:02:40;2.05;;;1.52;;
69053;SDS011;56125;52.242;4.756;2023-03-15T23:07:41;2.80;;;1.40;;
69053;SDS011;56125;52.242;4.756;2023-03-15T23:12:42;7.18;;;1.65;;
69053;SDS011;56125;52.242;4.756;2023-03-15T23:17:43;2.80;;;1.40;;
69053;SDS011;56125;52.242;4.756;2023-03-15T23:22:45;2.60;;;1.38;;
69053;SDS011;56125;52.242;4.756;2023-03-15T23:27:47;4.17;;;1.30;;
69053;SDS011;56125;52.242;4.756;2023-03-15T23:32:49;2.50;;;1.85;;
69053;SDS011;56125;52.242;4.756;2023-03-15T23:37:56;1.97;;;1.50;;
69053;SDS011;56125;52.242;4.756;2023-03-15T23:42:57;2.40;;;1.60;;
69053;SDS011;56125;52.242;4.756;2023-03-15T23:47:58;3.00;;;1.50;;
69053;SDS011;56125;52.242;4.756;2023-03-15T23:53:01;2.15;;;1.70;;
69053;SDS011;56125;52.242;4.756;2023-03-15T23:58:02;2.07;;;1.40;;
